createdAt,value
2022-07-27T00:00:47.245Z,100.00
2022-07-27T00:03:13.824Z,100.00
2022-07-27T00:05:40.447Z,100.00
2022-07-27T00:08:07.239Z,100.00
2022-07-27T00:10:34.733Z,100.00
2022-07-27T00:13:01.269Z,100.00
2022-07-27T00:15:28.057Z,100.00
2022-07-27T00:17:55.444Z,100.00
2022-07-27T00:20:22.936Z,100.00
2022-07-27T00:22:54.843Z,100.00
2022-07-27T00:25:22.796Z,100.00
2022-07-27T00:27:49.427Z,100.00
2022-07-27T00:30:16.407Z,100.00
2022-07-27T00:32:42.898Z,100.00
2022-07-27T00:35:09.817Z,100.00
2022-07-27T00:37:36.352Z,100.00
2022-07-27T00:40:03.820Z,100.00
2022-07-27T00:42:31.282Z,100.00
2022-07-27T00:44:58.103Z,100.00
2022-07-27T00:47:25.309Z,100.00
2022-07-27T00:49:51.819Z,100.00
2022-07-27T00:52:18.798Z,100.00
2022-07-27T00:54:45.675Z,100.00
2022-07-27T00:57:13.151Z,100.00
2022-07-27T00:59:39.934Z,100.00
2022-07-27T01:02:11.344Z,100.00
2022-07-27T01:04:39.421Z,100.00
2022-07-27T01:07:07.348Z,100.00
2022-07-27T01:09:53.341Z,100.00
2022-07-27T01:12:23.271Z,100.00
2022-07-27T01:14:51.020Z,100.00
2022-07-27T01:17:18.082Z,100.00
2022-07-27T01:19:45.035Z,100.00
2022-07-27T01:22:11.732Z,100.00
2022-07-27T01:24:38.851Z,100.00
2022-07-27T01:27:06.344Z,100.00
2022-07-27T01:29:34.035Z,100.00
2022-07-27T01:32:02.004Z,100.00
2022-07-27T01:34:28.882Z,100.00
2022-07-27T01:36:55.831Z,100.00
2022-07-27T01:39:22.310Z,100.00
2022-07-27T01:41:49.156Z,100.00
2022-07-27T01:44:15.743Z,100.00
2022-07-27T01:46:42.375Z,100.00
2022-07-27T01:49:09.772Z,100.00
2022-07-27T01:51:36.486Z,100.00
2022-07-27T01:54:03.770Z,100.00
2022-07-27T01:56:30.395Z,100.00
2022-07-27T01:58:56.975Z,100.00
2022-07-27T02:01:23.565Z,100.00
2022-07-27T02:03:50.247Z,100.00
2022-07-27T02:06:16.716Z,100.00
2022-07-27T02:08:43.161Z,100.00
2022-07-27T02:11:28.174Z,100.00
2022-07-27T02:13:54.713Z,100.00
2022-07-27T02:16:21.251Z,100.00
2022-07-27T02:18:51.124Z,100.00
2022-07-27T02:21:17.807Z,100.00
2022-07-27T02:23:45.480Z,100.00
2022-07-27T02:26:12.050Z,100.00
2022-07-27T02:28:39.342Z,100.00
2022-07-27T02:31:05.973Z,100.00
2022-07-27T02:33:32.970Z,100.00
2022-07-27T02:35:59.598Z,100.00
2022-07-27T02:38:26.214Z,100.00
2022-07-27T02:40:53.004Z,100.00
2022-07-27T02:43:19.531Z,100.00
2022-07-27T02:45:46.512Z,100.00
2022-07-27T02:48:13.867Z,100.00
2022-07-27T02:50:40.372Z,100.00
2022-07-27T02:53:06.873Z,100.00
2022-07-27T02:55:33.457Z,100.00
2022-07-27T02:58:00.116Z,100.00
2022-07-27T03:00:26.738Z,100.00
2022-07-27T03:02:53.377Z,100.00
2022-07-27T03:05:19.868Z,100.00
2022-07-27T03:07:46.486Z,100.00
2022-07-27T03:10:13.073Z,100.00
2022-07-27T03:12:39.591Z,100.00
2022-07-27T03:15:06.612Z,100.00
2022-07-27T03:17:33.322Z,100.00
2022-07-27T03:19:59.905Z,100.00
2022-07-27T03:22:30.575Z,100.00
2022-07-27T03:24:57.388Z,100.00
2022-07-27T03:27:23.863Z,100.00
2022-07-27T03:29:50.431Z,100.00
2022-07-27T03:32:17.297Z,100.00
2022-07-27T03:34:43.966Z,100.00
2022-07-27T03:37:10.614Z,100.00
2022-07-27T03:39:37.369Z,100.00
2022-07-27T03:42:06.756Z,100.00
2022-07-27T03:44:33.587Z,100.00
2022-07-27T03:47:00.663Z,100.00
2022-07-27T03:49:27.325Z,100.00
2022-07-27T03:51:53.972Z,100.00
2022-07-27T03:54:20.572Z,100.00
2022-07-27T03:56:47.203Z,100.00
2022-07-27T03:59:14.484Z,100.00
2022-07-27T04:01:41.691Z,100.00
2022-07-27T04:04:08.313Z,100.00
2022-07-27T04:06:35.080Z,100.00
2022-07-27T04:09:13.745Z,100.00
2022-07-27T04:11:50.629Z,100.00
2022-07-27T04:14:18.326Z,100.00
2022-07-27T04:16:45.025Z,100.00
2022-07-27T04:19:11.836Z,100.00
2022-07-27T04:21:38.993Z,100.00
2022-07-27T04:24:07.061Z,100.00
2022-07-27T04:26:33.715Z,100.00
2022-07-27T04:29:00.933Z,100.00
2022-07-27T04:31:27.617Z,100.00
2022-07-27T04:33:54.167Z,100.00
2022-07-27T04:36:20.976Z,100.00
2022-07-27T04:38:47.590Z,100.00
2022-07-27T04:41:14.199Z,100.00
2022-07-27T04:43:40.809Z,100.00
2022-07-27T04:46:10.613Z,100.00
2022-07-27T04:48:39.794Z,100.00
2022-07-27T04:51:08.258Z,100.00
2022-07-27T04:53:36.802Z,99.00
2022-07-27T04:56:20.080Z,97.53
2022-07-27T04:58:46.630Z,97.31
2022-07-27T05:01:13.192Z,96.67
2022-07-27T05:03:40.576Z,95.42
2022-07-27T05:06:07.330Z,94.95
2022-07-27T05:08:35.316Z,95.59
2022-07-27T05:11:02.625Z,94.53
2022-07-27T05:13:29.225Z,94.40
2022-07-27T05:15:56.137Z,94.36
2022-07-27T05:18:23.690Z,92.40
2022-07-27T05:20:50.477Z,92.39
2022-07-27T05:23:17.339Z,90.59
2022-07-27T05:25:44.224Z,90.54
2022-07-27T05:28:13.997Z,91.07
2022-07-27T05:30:40.720Z,89.00
2022-07-27T05:33:07.337Z,85.45
2022-07-27T05:35:33.825Z,84.52
2022-07-27T05:38:00.396Z,83.57
2022-07-27T05:40:27.244Z,83.27
2022-07-27T05:42:53.759Z,81.30
2022-07-27T05:45:20.448Z,77.11
2022-07-27T05:47:47.148Z,79.39
2022-07-27T05:50:14.198Z,75.03
2022-07-27T05:52:40.753Z,72.47
2022-07-27T05:55:07.931Z,67.77
2022-07-27T05:57:34.813Z,62.72
2022-07-27T06:00:01.612Z,58.96
2022-07-27T06:02:30.323Z,54.25
2022-07-27T06:04:57.341Z,51.23
2022-07-27T06:07:42.599Z,50.25
2022-07-27T06:10:09.626Z,47.29
2022-07-27T06:12:43.530Z,44.50
2022-07-27T06:15:11.222Z,38.97
2022-07-27T06:17:37.849Z,38.30
2022-07-27T06:20:05.770Z,36.62
2022-07-27T06:22:32.303Z,35.89
2022-07-27T06:24:59.381Z,33.38
2022-07-27T06:27:29.435Z,31.15
2022-07-27T06:29:56.213Z,31.85
2022-07-27T06:32:22.755Z,30.06
2022-07-27T06:34:49.553Z,28.94
2022-07-27T06:37:17.011Z,26.77
2022-07-27T06:39:46.601Z,26.17
2022-07-27T06:42:16.345Z,28.53
2022-07-27T06:44:42.823Z,30.22
2022-07-27T06:47:09.363Z,28.79
2022-07-27T06:49:35.976Z,28.41
2022-07-27T06:52:02.739Z,29.75
2022-07-27T06:54:29.253Z,28.60
2022-07-27T06:56:55.881Z,26.34
2022-07-27T06:59:22.489Z,23.64
2022-07-27T07:01:49.287Z,23.76
2022-07-27T07:04:16.247Z,23.33
2022-07-27T07:06:43.079Z,21.45
2022-07-27T07:09:09.760Z,21.94
2022-07-27T07:11:37.913Z,22.92
2022-07-27T07:14:04.867Z,23.87
2022-07-27T07:16:31.547Z,22.33
2022-07-27T07:18:58.238Z,22.64
2022-07-27T07:21:24.939Z,21.57
2022-07-27T07:23:51.749Z,20.63
2022-07-27T07:26:18.595Z,24.23
2022-07-27T07:28:45.261Z,22.66
2022-07-27T07:31:11.826Z,23.01
2022-07-27T07:33:38.541Z,22.97
2022-07-27T07:36:13.175Z,22.99
2022-07-27T07:38:41.294Z,23.44
2022-07-27T07:41:08.000Z,23.16
2022-07-27T07:43:36.636Z,24.96
2022-07-27T07:46:04.057Z,26.79
2022-07-27T07:48:30.870Z,28.64
2022-07-27T07:50:57.463Z,29.54
2022-07-27T07:53:24.265Z,30.48
2022-07-27T07:55:52.052Z,30.28
2022-07-27T07:58:19.010Z,33.69
2022-07-27T08:00:45.790Z,33.46
2022-07-27T08:03:12.363Z,33.94
2022-07-27T08:05:38.951Z,34.96
2022-07-27T08:08:05.969Z,35.49
2022-07-27T08:10:32.646Z,34.02
2022-07-27T08:12:59.200Z,35.90
2022-07-27T08:15:29.978Z,34.99
2022-07-27T08:18:03.011Z,35.02
2022-07-27T08:20:29.830Z,34.39
2022-07-27T08:22:56.328Z,35.69
2022-07-27T08:25:23.239Z,36.15
2022-07-27T08:27:49.986Z,36.03
2022-07-27T08:30:16.897Z,37.77
2022-07-27T08:32:53.178Z,38.96
2022-07-27T08:35:20.343Z,39.09
2022-07-27T08:37:47.179Z,37.69
2022-07-27T08:43:02.841Z,40.02
2022-07-27T08:45:31.867Z,41.55
2022-07-27T08:47:58.417Z,40.32
2022-07-27T08:50:25.862Z,39.89
2022-07-27T08:53:05.764Z,39.88
2022-07-27T08:55:33.993Z,40.37
2022-07-27T08:58:03.113Z,40.94
2022-07-27T09:00:30.788Z,42.90
2022-07-27T09:02:57.833Z,41.17
2022-07-27T09:05:24.703Z,41.82
2022-07-27T09:07:51.641Z,41.22
2022-07-27T09:10:35.655Z,42.98
2022-07-27T09:13:26.975Z,44.76
2022-07-27T09:16:20.908Z,42.78
2022-07-27T09:18:48.725Z,43.56
2022-07-27T09:21:21.709Z,44.02
2022-07-27T09:24:36.746Z,44.35
2022-07-27T09:27:05.643Z,44.95
2022-07-27T09:29:36.625Z,44.66
2022-07-27T09:32:14.700Z,46.47
2022-07-27T09:34:41.357Z,44.08
2022-07-27T09:37:09.439Z,43.74
2022-07-27T09:39:35.926Z,45.97
2022-07-27T09:42:03.840Z,45.76
2022-07-27T09:44:43.334Z,47.75
2022-07-27T09:47:27.457Z,47.61
2022-07-27T09:49:58.986Z,46.11
2022-07-27T09:52:28.593Z,45.79
2022-07-27T09:55:02.956Z,44.70
2022-07-27T09:57:29.594Z,47.76
2022-07-27T10:00:22.378Z,48.31
2022-07-27T10:02:50.471Z,45.08
2022-07-27T10:05:22.668Z,46.75
2022-07-27T10:07:53.182Z,47.16
2022-07-27T10:10:21.437Z,47.98
2022-07-27T10:12:53.959Z,47.13
2022-07-27T10:15:21.560Z,45.51
2022-07-27T10:17:55.605Z,46.99
2022-07-27T10:20:22.351Z,49.19
2022-07-27T10:22:58.680Z,47.60
2022-07-27T10:25:27.146Z,45.61
2022-07-27T10:28:13.501Z,45.52
2022-07-27T10:30:40.345Z,44.75
2022-07-27T10:33:16.621Z,45.23
2022-07-27T10:35:43.393Z,47.94
2022-07-27T10:38:11.204Z,47.82
2022-07-27T10:40:39.266Z,47.58
2022-07-27T10:43:07.044Z,47.33
2022-07-27T10:45:50.211Z,48.32
2022-07-27T10:48:47.712Z,48.12
2022-07-27T10:51:17.139Z,46.84
2022-07-27T10:56:45.947Z,48.69
2022-07-27T10:59:12.849Z,46.89
2022-07-27T11:01:58.579Z,45.79
2022-07-27T11:04:26.141Z,47.33
2022-07-27T11:10:03.670Z,47.25
2022-07-27T11:12:31.479Z,44.55
2022-07-27T11:14:58.504Z,44.88
2022-07-27T11:20:15.955Z,46.56
2022-07-27T11:25:29.273Z,45.99
2022-07-27T11:27:55.893Z,45.85
2022-07-27T11:30:24.377Z,45.30
2022-07-27T11:32:52.809Z,45.97
2022-07-27T11:35:20.345Z,47.25
2022-07-27T11:38:06.124Z,45.40
2022-07-27T11:40:57.055Z,47.23
2022-07-27T11:43:37.216Z,47.49
2022-07-27T11:46:28.247Z,45.13
2022-07-27T11:49:17.776Z,46.93
2022-07-27T11:51:50.075Z,46.58
2022-07-27T11:54:23.454Z,48.07
2022-07-27T11:56:55.248Z,46.66
2022-07-27T11:59:23.748Z,45.64
2022-07-27T12:01:53.509Z,46.23
2022-07-27T12:04:40.175Z,46.84
2022-07-27T12:07:08.398Z,48.36
2022-07-27T12:09:39.135Z,46.31
2022-07-27T12:12:16.632Z,45.43
2022-07-27T12:14:46.275Z,46.97
2022-07-27T12:17:26.969Z,48.64
2022-07-27T12:20:10.765Z,47.00
2022-07-27T12:22:39.874Z,45.86
2022-07-27T12:25:12.607Z,46.96
2022-07-27T12:28:02.841Z,47.33
2022-07-27T12:30:31.309Z,44.17
2022-07-27T12:33:00.345Z,44.38
2022-07-27T12:35:37.294Z,46.20
2022-07-27T12:38:09.541Z,45.15
2022-07-27T12:40:44.569Z,45.61
2022-07-27T12:43:15.685Z,43.77
2022-07-27T12:45:42.297Z,44.92
2022-07-27T12:48:11.980Z,44.04
2022-07-27T12:50:40.665Z,44.97
2022-07-27T12:53:08.027Z,44.71
2022-07-27T12:55:34.952Z,45.03
2022-07-27T12:58:01.505Z,44.41
2022-07-27T13:00:33.614Z,44.91
2022-07-27T13:03:02.033Z,45.43
2022-07-27T13:05:29.000Z,45.97
2022-07-27T13:07:55.571Z,43.26
2022-07-27T13:10:22.644Z,44.70
2022-07-27T13:12:49.641Z,43.19
2022-07-27T13:15:16.791Z,43.79
2022-07-27T13:17:44.194Z,44.72
2022-07-27T13:20:12.762Z,44.67
2022-07-27T13:22:40.829Z,44.05
2022-07-27T13:25:16.438Z,44.47
2022-07-27T13:27:48.004Z,44.15
2022-07-27T13:30:16.176Z,45.54
2022-07-27T13:32:43.173Z,44.52
2022-07-27T13:35:12.494Z,43.65
2022-07-27T13:37:40.085Z,43.45
2022-07-27T13:40:07.936Z,43.91
2022-07-27T13:42:34.462Z,44.11
2022-07-27T13:45:09.118Z,44.25
2022-07-27T13:47:38.035Z,42.71
2022-07-27T13:50:05.453Z,41.67
2022-07-27T13:52:31.935Z,43.09
2022-07-27T13:54:58.440Z,41.05
2022-07-27T13:57:25.154Z,43.03
2022-07-27T13:59:51.666Z,41.79
2022-07-27T14:02:22.842Z,43.12
2022-07-27T14:04:50.310Z,42.56
2022-07-27T14:07:17.481Z,41.26
2022-07-27T14:10:03.021Z,41.42
2022-07-27T14:12:29.540Z,42.38
2022-07-27T14:14:56.302Z,42.14
2022-07-27T14:17:23.193Z,42.10
2022-07-27T14:19:49.725Z,42.90
2022-07-27T14:22:16.381Z,44.63
2022-07-27T14:24:42.947Z,42.91
2022-07-27T14:27:09.447Z,42.58
2022-07-27T14:29:36.078Z,44.06
2022-07-27T14:32:02.903Z,43.20
2022-07-27T14:34:29.593Z,43.16
2022-07-27T14:36:56.256Z,42.62
2022-07-27T14:39:23.271Z,43.91
2022-07-27T14:41:49.828Z,43.49
2022-07-27T14:44:18.627Z,43.35
2022-07-27T14:46:46.484Z,44.15
2022-07-27T14:49:14.820Z,44.81
2022-07-27T14:51:41.750Z,45.88
2022-07-27T14:54:08.539Z,44.67
2022-07-27T14:56:36.621Z,44.05
2022-07-27T14:59:04.145Z,43.89
2022-07-27T15:01:30.919Z,43.42
2022-07-27T15:03:57.567Z,44.06
2022-07-27T15:06:24.183Z,44.29
2022-07-27T15:08:50.718Z,44.89
2022-07-27T15:11:17.251Z,46.61
2022-07-27T15:13:43.748Z,45.47
2022-07-27T15:16:12.051Z,44.83
2022-07-27T15:18:39.208Z,44.39
2022-07-27T15:21:13.615Z,44.46
2022-07-27T15:23:44.456Z,44.91
2022-07-27T15:26:12.538Z,44.75
2022-07-27T15:28:40.056Z,45.37
2022-07-27T15:31:06.720Z,46.63
2022-07-27T15:33:33.476Z,46.89
2022-07-27T15:35:59.998Z,45.84
2022-07-27T15:38:26.640Z,45.33
2022-07-27T15:40:53.320Z,43.65
2022-07-27T15:43:20.345Z,43.27
2022-07-27T15:45:48.985Z,44.69
2022-07-27T15:48:17.186Z,46.36
2022-07-27T15:50:45.899Z,46.90
2022-07-27T15:53:13.261Z,47.83
2022-07-27T15:55:39.823Z,47.80
2022-07-27T15:58:06.881Z,48.65
2022-07-27T16:00:39.416Z,48.22
2022-07-27T16:03:07.567Z,49.12
2022-07-27T16:05:34.188Z,48.59
2022-07-27T16:08:00.840Z,48.21
2022-07-27T16:10:29.768Z,48.96
2022-07-27T16:12:56.974Z,48.80
2022-07-27T16:15:43.656Z,48.10
2022-07-27T16:18:10.564Z,48.82
2022-07-27T16:20:37.262Z,48.22
2022-07-27T16:23:17.696Z,48.56
2022-07-27T16:26:07.630Z,49.52
2022-07-27T16:28:40.819Z,47.25
2022-07-27T16:31:08.873Z,46.18
2022-07-27T16:33:35.579Z,44.03
2022-07-27T16:36:02.706Z,44.76
2022-07-27T16:38:29.488Z,45.53
2022-07-27T16:40:56.124Z,45.99
2022-07-27T16:43:23.233Z,46.89
2022-07-27T16:46:05.433Z,47.16
2022-07-27T16:48:38.336Z,48.45
2022-07-27T16:51:11.621Z,48.19
2022-07-27T16:53:40.150Z,48.41
2022-07-27T16:56:07.111Z,48.66
2022-07-27T16:58:34.285Z,49.67
2022-07-27T17:01:01.708Z,49.21
2022-07-27T17:03:28.287Z,50.11
2022-07-27T17:05:54.846Z,49.70
2022-07-27T17:08:22.008Z,49.58
2022-07-27T17:10:55.180Z,49.28
2022-07-27T17:13:23.161Z,49.81
2022-07-27T17:16:00.908Z,49.67
2022-07-27T17:18:27.847Z,50.10
2022-07-27T17:20:54.428Z,50.73
2022-07-27T17:23:21.139Z,50.66
2022-07-27T17:25:47.772Z,51.01
2022-07-27T17:28:14.282Z,51.80
2022-07-27T17:30:40.741Z,51.68
2022-07-27T17:33:07.511Z,51.96
2022-07-27T17:35:35.264Z,52.25
2022-07-27T17:38:06.887Z,53.63
2022-07-27T17:40:34.659Z,53.83
2022-07-27T17:43:01.181Z,55.14
2022-07-27T17:45:27.779Z,55.21
2022-07-27T17:47:55.082Z,56.43
2022-07-27T17:50:21.712Z,56.95
2022-07-27T17:52:48.218Z,56.71
2022-07-27T17:55:14.913Z,57.13
2022-07-27T17:57:41.557Z,57.97
2022-07-27T18:00:10.619Z,57.63
2022-07-27T18:02:37.370Z,57.74
2022-07-27T18:05:07.788Z,58.41
2022-07-27T18:07:39.164Z,58.74
2022-07-27T18:10:08.102Z,58.91
2022-07-27T18:12:35.594Z,59.00
2022-07-27T18:15:21.060Z,58.98
2022-07-27T18:17:47.648Z,59.88
2022-07-27T18:20:17.536Z,59.57
2022-07-27T18:22:44.302Z,59.64
2022-07-27T18:25:11.472Z,59.56
2022-07-27T18:27:38.624Z,59.98
2022-07-27T18:30:06.535Z,60.08
2022-07-27T18:32:33.533Z,60.52
2022-07-27T18:35:01.869Z,61.18
2022-07-27T18:37:28.703Z,62.09
2022-07-27T18:39:55.308Z,62.62
2022-07-27T18:42:21.925Z,63.50
2022-07-27T18:44:48.886Z,64.70
2022-07-27T18:47:15.556Z,65.18
2022-07-27T18:49:42.178Z,65.18
2022-07-27T18:52:08.922Z,65.84
2022-07-27T18:54:35.848Z,67.29
2022-07-27T18:57:02.963Z,68.71
2022-07-27T18:59:30.307Z,68.70
2022-07-27T19:01:57.747Z,68.92
2022-07-27T19:04:24.661Z,69.66
2022-07-27T19:06:51.603Z,71.08
2022-07-27T19:09:18.302Z,71.24
2022-07-27T19:11:44.976Z,71.54
2022-07-27T19:14:11.608Z,73.00
2022-07-27T19:16:38.488Z,72.84
2022-07-27T19:19:07.752Z,73.26
2022-07-27T19:21:38.304Z,72.34
2022-07-27T19:24:05.372Z,73.15
2022-07-27T19:26:33.654Z,73.45
2022-07-27T19:29:01.952Z,73.32
2022-07-27T19:31:28.938Z,73.34
2022-07-27T19:33:56.143Z,73.71
2022-07-27T19:36:23.854Z,73.89
2022-07-27T19:38:50.864Z,74.53
2022-07-27T19:41:17.751Z,74.90
2022-07-27T19:43:44.519Z,75.79
2022-07-27T19:46:11.190Z,76.14
2022-07-27T19:48:37.935Z,77.49
2022-07-27T19:51:06.976Z,78.95
2022-07-27T19:53:35.721Z,76.87
2022-07-27T19:56:05.037Z,74.67
2022-07-27T19:58:32.050Z,73.13
2022-07-27T20:00:58.788Z,72.58
2022-07-27T20:03:25.556Z,71.48
2022-07-27T20:05:52.529Z,69.95
2022-07-27T20:08:19.294Z,69.50
2022-07-27T20:10:47.559Z,68.48
2022-07-27T20:13:17.042Z,68.76
2022-07-27T20:15:43.662Z,68.84
2022-07-27T20:18:10.152Z,68.04
2022-07-27T20:20:36.759Z,67.99
2022-07-27T20:23:06.200Z,68.46
2022-07-27T20:25:32.818Z,68.23
2022-07-27T20:27:59.892Z,67.80
2022-07-27T20:30:26.707Z,67.61
2022-07-27T20:32:53.206Z,67.73
2022-07-27T20:35:19.942Z,68.33
2022-07-27T20:37:47.473Z,67.47
2022-07-27T20:40:14.472Z,67.52
2022-07-27T20:42:41.913Z,66.22
2022-07-27T20:45:11.117Z,66.41
2022-07-27T20:47:40.554Z,66.33
2022-07-27T20:50:11.729Z,66.37
2022-07-27T20:52:39.311Z,65.41
2022-07-27T20:55:07.223Z,64.49
2022-07-27T20:57:33.805Z,64.14
2022-07-27T21:00:00.370Z,64.60
2022-07-27T21:02:27.291Z,62.92
2022-07-27T21:04:54.969Z,62.72
2022-07-27T21:07:21.691Z,62.14
2022-07-27T21:09:48.366Z,61.98
2022-07-27T21:12:15.671Z,62.13
2022-07-27T21:14:42.789Z,63.02
2022-07-27T21:17:09.402Z,63.25
2022-07-27T21:19:36.067Z,63.48
2022-07-27T21:22:02.706Z,64.25
2022-07-27T21:24:29.887Z,63.18
2022-07-27T21:27:00.934Z,63.49
2022-07-27T21:29:31.713Z,63.02
2022-07-27T21:31:58.761Z,62.29
2022-07-27T21:34:25.335Z,61.44
2022-07-27T21:36:51.812Z,62.25
2022-07-27T21:39:18.928Z,62.12
2022-07-27T21:41:45.611Z,61.86
2022-07-27T21:44:12.281Z,62.45
2022-07-27T21:46:39.185Z,62.32
2022-07-27T21:49:05.758Z,62.35
2022-07-27T21:51:32.308Z,62.54
2022-07-27T21:53:59.207Z,62.50
2022-07-27T21:56:25.679Z,62.49
2022-07-27T21:58:52.184Z,62.28
2022-07-27T22:01:19.236Z,62.11
2022-07-27T22:03:45.993Z,62.01
2022-07-27T22:06:12.721Z,62.04
2022-07-27T22:08:39.705Z,61.43
2022-07-27T22:11:06.696Z,61.98
2022-07-27T22:13:33.726Z,62.48
2022-07-27T22:16:01.003Z,62.53
2022-07-27T22:18:28.766Z,62.50
2022-07-27T22:20:55.932Z,63.12
2022-07-27T22:23:22.724Z,63.73
2022-07-27T22:25:49.536Z,65.03
2022-07-27T22:28:16.009Z,64.85
2022-07-27T22:30:42.689Z,65.74
2022-07-27T22:33:09.226Z,66.42
2022-07-27T22:35:35.715Z,66.05
2022-07-27T22:38:02.701Z,65.54
2022-07-27T22:40:29.308Z,65.67
2022-07-27T22:42:55.794Z,65.38
2022-07-27T22:45:22.727Z,65.38
2022-07-27T22:47:49.314Z,65.05
2022-07-27T22:50:18.238Z,66.01
2022-07-27T22:52:45.152Z,66.28
2022-07-27T22:55:11.721Z,66.83
2022-07-27T22:57:38.202Z,66.45
2022-07-27T23:00:06.340Z,67.23
2022-07-27T23:02:34.185Z,67.13
2022-07-27T23:05:00.742Z,67.32
2022-07-27T23:07:27.662Z,67.46
2022-07-27T23:09:54.223Z,67.44
2022-07-27T23:12:23.768Z,67.58
2022-07-27T23:14:50.510Z,68.41
2022-07-27T23:17:17.120Z,68.62
2022-07-27T23:19:43.638Z,68.09
2022-07-27T23:22:11.545Z,68.05
2022-07-27T23:24:41.014Z,68.21
2022-07-27T23:27:08.082Z,68.96
2022-07-27T23:29:34.698Z,69.24
2022-07-27T23:32:02.876Z,69.81
2022-07-27T23:34:29.522Z,69.86
2022-07-27T23:36:56.554Z,69.31
2022-07-27T23:39:23.069Z,69.96
2022-07-27T23:41:50.323Z,69.94
2022-07-27T23:44:17.571Z,70.31
2022-07-27T23:46:44.293Z,69.97
2022-07-27T23:49:10.990Z,69.87
2022-07-27T23:51:37.689Z,70.83
2022-07-27T23:54:04.474Z,71.54
2022-07-27T23:56:30.954Z,70.63
2022-07-27T23:58:57.630Z,70.97
